createdAt,value
2017-03-19T00:01:02.373Z,0
2017-03-19T00:02:12.715Z,0
2017-03-19T00:03:23.057Z,0
2017-03-19T00:04:33.419Z,0
2017-03-19T00:05:43.746Z,0
2017-03-19T00:06:54.097Z,0
2017-03-19T00:08:04.490Z,0
2017-03-19T00:09:14.856Z,0
2017-03-19T00:10:24.885Z,0
2017-03-19T00:11:34.910Z,0
2017-03-19T00:12:45.271Z,0
2017-03-19T00:13:55.619Z,0
2017-03-19T00:15:05.962Z,0
2017-03-19T00:16:16.003Z,0
2017-03-19T00:17:26.331Z,0
2017-03-19T00:18:36.681Z,0
2017-03-19T00:19:47.028Z,0
2017-03-19T00:20:57.374Z,0
2017-03-19T00:22:07.711Z,0
2017-03-19T00:23:18.058Z,0
2017-03-19T00:24:28.419Z,0
2017-03-19T00:25:38.763Z,0
2017-03-19T00:26:49.101Z,0
2017-03-19T00:27:59.440Z,0
2017-03-19T00:29:09.533Z,0
2017-03-19T00:30:19.890Z,0
2017-03-19T00:31:29.906Z,0
2017-03-19T00:32:39.632Z,0
2017-03-19T00:33:49.983Z,0
2017-03-19T00:35:00.338Z,0
2017-03-19T00:36:10.375Z,0
2017-03-19T00:37:20.751Z,0
2017-03-19T00:38:30.470Z,0
2017-03-19T00:39:40.814Z,0
2017-03-19T00:40:51.190Z,0
2017-03-19T00:42:01.531Z,0
2017-03-19T00:43:11.598Z,0
2017-03-19T00:44:21.957Z,0
2017-03-19T00:45:32.327Z,0
2017-03-19T00:46:42.666Z,0
2017-03-19T00:47:53.012Z,0
2017-03-19T00:49:03.356Z,0
2017-03-19T00:50:13.702Z,0
2017-03-19T00:51:24.061Z,0
2017-03-19T00:52:34.405Z,0
2017-03-19T00:53:44.749Z,0
2017-03-19T00:54:54.771Z,0
2017-03-19T00:56:05.106Z,0
2017-03-19T00:57:15.118Z,0
2017-03-19T00:58:25.468Z,0
2017-03-19T00:59:35.805Z,0
2017-03-19T01:00:46.148Z,0
2017-03-19T01:01:56.208Z,0
2017-03-19T01:03:06.560Z,0
2017-03-19T01:04:16.603Z,0
2017-03-19T01:05:26.938Z,0
2017-03-19T01:06:37.285Z,0
2017-03-19T01:07:47.313Z,0
2017-03-19T01:08:57.654Z,0
2017-03-19T01:10:08.013Z,0
2017-03-19T01:11:18.603Z,0
2017-03-19T01:12:28.634Z,0
2017-03-19T01:13:38.988Z,0
2017-03-19T01:14:49.016Z,0
2017-03-19T01:15:59.045Z,0
2017-03-19T01:17:09.377Z,0
2017-03-19T01:18:19.725Z,0
2017-03-19T01:19:30.106Z,0
2017-03-19T01:20:40.121Z,0
2017-03-19T01:21:50.469Z,0
2017-03-19T01:23:00.508Z,0
2017-03-19T01:24:10.854Z,0
2017-03-19T01:25:20.880Z,0
2017-03-19T01:26:30.917Z,0
2017-03-19T01:27:40.942Z,0
2017-03-19T01:28:51.283Z,0
2017-03-19T01:30:01.316Z,0
2017-03-19T01:31:11.659Z,0
2017-03-19T01:32:21.992Z,0
2017-03-19T01:33:32.350Z,0
2017-03-19T01:34:42.369Z,0
2017-03-19T01:35:52.771Z,0
2017-03-19T01:37:03.105Z,0
2017-03-19T01:38:13.149Z,0
2017-03-19T01:39:23.498Z,0
2017-03-19T01:40:33.529Z,0
2017-03-19T01:41:43.893Z,0
2017-03-19T01:42:54.243Z,0
2017-03-19T01:44:04.593Z,0
2017-03-19T01:45:14.620Z,0
2017-03-19T01:46:25.006Z,0
2017-03-19T01:47:35.344Z,0
2017-03-19T01:48:45.697Z,0
2017-03-19T01:49:55.730Z,0
2017-03-19T01:51:06.089Z,0
2017-03-19T01:52:16.438Z,0
2017-03-19T01:53:26.159Z,0
2017-03-19T01:54:35.905Z,0
2017-03-19T01:55:45.620Z,0
2017-03-19T01:56:55.945Z,0
2017-03-19T01:58:05.983Z,0
2017-03-19T01:59:16.337Z,0
2017-03-19T02:00:26.356Z,0
2017-03-19T02:01:36.692Z,0
2017-03-19T02:02:47.047Z,0
2017-03-19T02:03:57.396Z,0
2017-03-19T02:05:07.416Z,0
2017-03-19T02:06:17.780Z,0
2017-03-19T02:07:28.134Z,0
2017-03-19T02:08:38.165Z,0
2017-03-19T02:09:48.538Z,0
2017-03-19T02:10:58.884Z,0
2017-03-19T02:12:09.236Z,0
2017-03-19T02:13:19.576Z,0
2017-03-19T02:14:29.915Z,0
2017-03-19T02:15:40.263Z,0
2017-03-19T02:16:50.614Z,0
2017-03-19T02:18:00.971Z,0
2017-03-19T02:19:11.307Z,0
2017-03-19T02:20:21.652Z,0
2017-03-19T02:21:32.005Z,0
2017-03-19T02:22:42.353Z,0
2017-03-19T02:23:52.732Z,0
2017-03-19T02:25:03.074Z,0
2017-03-19T02:26:13.099Z,0
2017-03-19T02:27:23.440Z,0
2017-03-19T02:28:33.472Z,0
2017-03-19T02:29:43.501Z,0
2017-03-19T02:30:53.854Z,0
2017-03-19T02:32:03.885Z,0
2017-03-19T02:33:14.259Z,0
2017-03-19T02:34:24.285Z,0
2017-03-19T02:35:34.626Z,0
2017-03-19T02:36:44.338Z,0
2017-03-19T02:37:54.685Z,0
2017-03-19T02:39:05.019Z,0
2017-03-19T02:40:15.048Z,0
2017-03-19T02:41:25.084Z,0
2017-03-19T02:42:34.837Z,0
2017-03-19T02:43:45.184Z,0
2017-03-19T02:44:55.535Z,0
2017-03-19T02:46:05.867Z,0
2017-03-19T02:47:16.202Z,0
2017-03-19T02:48:26.562Z,0
2017-03-19T02:49:36.567Z,0
2017-03-19T02:50:46.602Z,0
2017-03-19T02:51:56.937Z,0
2017-03-19T02:53:07.284Z,0
2017-03-19T02:54:17.331Z,0
2017-03-19T02:55:27.692Z,0
2017-03-19T02:56:37.422Z,0
2017-03-19T02:57:47.764Z,0
2017-03-19T02:58:57.801Z,0
2017-03-19T03:00:07.843Z,0
2017-03-19T03:01:18.192Z,0
2017-03-19T03:32:27.661Z,0
2017-03-19T03:33:37.989Z,0
2017-03-19T03:34:48.314Z,0
2017-03-19T03:35:58.018Z,0
2017-03-19T03:37:08.355Z,0
2017-03-19T03:38:18.377Z,0
2017-03-19T03:39:28.430Z,0
2017-03-19T03:40:38.766Z,0
2017-03-19T03:41:49.091Z,0
2017-03-19T03:42:59.105Z,0
2017-03-19T03:44:09.450Z,0
2017-03-19T03:45:19.800Z,0
2017-03-19T03:46:30.145Z,0
2017-03-19T03:47:40.174Z,0
2017-03-19T03:48:50.208Z,0
2017-03-19T03:50:00.544Z,0
2017-03-19T03:51:10.600Z,0
2017-03-19T03:52:20.639Z,0
2017-03-19T03:53:31.002Z,0
2017-03-19T03:54:41.348Z,0
2017-03-19T03:55:51.671Z,0
2017-03-19T03:57:01.996Z,0
2017-03-19T03:58:12.026Z,0
2017-03-19T03:59:22.370Z,0
2017-03-19T04:00:32.399Z,0
2017-03-19T04:01:42.412Z,0
2017-03-19T04:02:52.453Z,0
2017-03-19T04:04:02.810Z,0
2017-03-19T04:05:12.847Z,0
2017-03-19T04:06:22.874Z,0
2017-03-19T04:07:33.221Z,0
2017-03-19T04:08:43.555Z,0
2017-03-19T04:09:53.903Z,0
2017-03-19T04:11:03.922Z,0
2017-03-19T04:12:13.672Z,0
2017-03-19T04:13:24.033Z,0
2017-03-19T04:14:34.086Z,0
2017-03-19T04:15:44.107Z,0
2017-03-19T04:16:54.452Z,0
2017-03-19T04:18:04.474Z,0
2017-03-19T04:19:14.806Z,0
2017-03-19T04:20:24.831Z,0
2017-03-19T04:21:35.191Z,0
2017-03-19T04:22:45.514Z,0
2017-03-19T04:23:55.882Z,0
2017-03-19T04:25:06.221Z,0
2017-03-19T04:26:16.575Z,0
2017-03-19T04:27:26.939Z,0
2017-03-19T04:28:37.276Z,0
2017-03-19T04:29:47.614Z,0
2017-03-19T04:30:57.942Z,0
2017-03-19T04:32:07.963Z,0
2017-03-19T04:33:18.297Z,0
2017-03-19T04:34:28.632Z,0
2017-03-19T04:35:38.356Z,0
2017-03-19T04:36:48.688Z,0
2017-03-19T04:37:59.022Z,4
2017-03-19T04:39:09.360Z,4
2017-03-19T04:40:19.700Z,4
2017-03-19T04:41:29.732Z,0
2017-03-19T04:42:40.064Z,0
2017-03-19T04:43:50.445Z,0
2017-03-19T04:45:00.498Z,4
2017-03-19T04:46:10.842Z,4
2017-03-19T04:47:21.195Z,4
2017-03-19T04:48:31.567Z,4
2017-03-19T04:49:41.609Z,4
2017-03-19T04:50:51.939Z,4
2017-03-19T04:52:02.267Z,8
2017-03-19T04:53:12.614Z,8
2017-03-19T04:54:22.964Z,8
2017-03-19T04:55:33.311Z,8
2017-03-19T04:56:43.688Z,12
2017-03-19T04:57:54.036Z,8
2017-03-19T04:59:04.367Z,12
2017-03-19T05:00:14.387Z,16
2017-03-19T05:01:24.403Z,16
2017-03-19T05:02:34.735Z,12
2017-03-19T05:03:45.080Z,16
2017-03-19T05:04:55.425Z,20
2017-03-19T05:06:05.761Z,24
2017-03-19T05:07:15.789Z,24
2017-03-19T05:08:26.110Z,28
2017-03-19T05:09:36.449Z,32
2017-03-19T05:10:46.790Z,32
2017-03-19T05:11:56.506Z,32
2017-03-19T05:13:06.843Z,44
2017-03-19T05:14:17.194Z,48
2017-03-19T05:15:27.541Z,56
2017-03-19T05:16:37.885Z,60
2017-03-19T05:17:48.263Z,64
2017-03-19T05:18:58.598Z,60
2017-03-19T05:20:08.923Z,56
2017-03-19T05:21:19.263Z,64
2017-03-19T05:22:29.302Z,68
2017-03-19T05:23:39.637Z,76
2017-03-19T05:24:49.991Z,80
2017-03-19T05:26:00.029Z,88
2017-03-19T05:27:10.047Z,92
2017-03-19T05:28:20.398Z,100
2017-03-19T05:29:30.423Z,112
2017-03-19T05:30:40.748Z,124
2017-03-19T05:31:51.084Z,140
2017-03-19T05:33:01.420Z,160
2017-03-19T05:34:11.490Z,184
2017-03-19T05:35:21.840Z,192
2017-03-19T05:36:31.867Z,192
2017-03-19T05:37:42.219Z,188
2017-03-19T05:38:52.247Z,176
2017-03-19T05:40:02.583Z,176
2017-03-19T05:41:12.918Z,172
2017-03-19T05:42:22.942Z,168
2017-03-19T05:43:33.279Z,164
2017-03-19T05:44:43.630Z,168
2017-03-19T05:45:53.966Z,168
2017-03-19T05:47:04.304Z,168
2017-03-19T05:48:14.333Z,176
2017-03-19T05:49:24.671Z,196
2017-03-19T05:50:34.684Z,220
2017-03-19T05:51:45.022Z,216
2017-03-19T05:52:55.376Z,212
2017-03-19T05:54:05.415Z,216
2017-03-19T05:55:15.440Z,224
2017-03-19T05:56:25.464Z,232
2017-03-19T05:57:35.806Z,244
2017-03-19T05:58:46.152Z,256
2017-03-19T05:59:56.531Z,268
2017-03-19T06:01:06.866Z,280
2017-03-19T06:02:17.190Z,284
2017-03-19T06:03:27.559Z,288
2017-03-19T06:04:37.894Z,292
2017-03-19T06:05:48.244Z,288
2017-03-19T06:06:58.578Z,284
2017-03-19T06:08:08.592Z,272
2017-03-19T06:09:18.925Z,256
2017-03-19T06:10:29.263Z,276
2017-03-19T06:11:39.283Z,288
2017-03-19T06:12:49.611Z,292
2017-03-19T06:13:59.951Z,296
2017-03-19T06:15:10.292Z,300
2017-03-19T06:16:20.684Z,320
2017-03-19T06:17:31.016Z,336
2017-03-19T06:18:40.758Z,364
2017-03-19T06:19:51.097Z,412
2017-03-19T06:21:01.499Z,452
2017-03-19T06:22:11.831Z,468
2017-03-19T06:23:22.184Z,480
2017-03-19T06:24:32.528Z,464
2017-03-19T06:25:42.555Z,472
2017-03-19T06:26:52.580Z,528
2017-03-19T06:28:02.917Z,568
2017-03-19T06:29:12.939Z,596
2017-03-19T06:30:23.272Z,612
2017-03-19T06:31:33.309Z,648
2017-03-19T06:32:43.648Z,708
2017-03-19T06:33:53.987Z,744
2017-03-19T06:35:04.026Z,728
2017-03-19T06:36:14.378Z,692
2017-03-19T06:37:24.720Z,680
2017-03-19T06:38:35.048Z,704
2017-03-19T06:39:45.051Z,748
2017-03-19T06:40:55.126Z,788
2017-03-19T06:42:04.830Z,812
2017-03-19T06:43:14.853Z,828
2017-03-19T06:44:25.199Z,840
2017-03-19T06:45:35.243Z,852
2017-03-19T06:46:45.620Z,880
2017-03-19T06:47:55.966Z,904
2017-03-19T06:49:05.688Z,884
2017-03-19T06:50:16.024Z,852
2017-03-19T06:51:26.357Z,884
2017-03-19T06:52:36.384Z,984
2017-03-19T06:53:46.730Z,1040
2017-03-19T06:54:56.768Z,1012
2017-03-19T06:56:07.101Z,988
2017-03-19T06:57:17.456Z,1048
2017-03-19T06:58:27.790Z,1144
2017-03-19T06:59:38.154Z,1140
2017-03-19T07:00:48.512Z,1088
2017-03-19T07:01:58.553Z,1136
2017-03-19T07:03:08.890Z,1280
2017-03-19T07:04:19.232Z,1304
2017-03-19T07:05:28.952Z,1228
2017-03-19T07:06:39.332Z,1168
2017-03-19T07:07:49.367Z,1132
2017-03-19T07:08:59.719Z,1156
2017-03-19T07:10:10.085Z,1224
2017-03-19T07:11:20.434Z,1300
2017-03-19T07:12:30.825Z,1328
2017-03-19T07:13:41.170Z,1320
2017-03-19T07:14:51.186Z,1364
2017-03-19T07:16:01.543Z,1388
2017-03-19T07:17:11.892Z,1316
2017-03-19T07:18:22.244Z,1328
2017-03-19T07:19:32.628Z,1356
2017-03-19T07:20:42.656Z,1352
2017-03-19T07:21:52.990Z,1380
2017-03-19T07:23:03.340Z,1396
2017-03-19T07:24:13.695Z,1372
2017-03-19T07:25:24.036Z,1336
2017-03-19T07:26:34.418Z,1316
2017-03-19T07:27:44.761Z,1244
2017-03-19T07:28:55.089Z,1128
2017-03-19T07:30:05.439Z,1092
2017-03-19T07:31:15.779Z,1104
2017-03-19T07:32:26.108Z,1132
2017-03-19T07:39:57.558Z,1264
2017-03-19T07:41:07.278Z,1280
2017-03-19T07:42:17.312Z,1380
2017-03-19T07:43:27.701Z,1492
2017-03-19T07:44:38.056Z,1592
2017-03-19T07:45:47.769Z,1652
2017-03-19T07:46:58.137Z,1676
2017-03-19T07:48:08.466Z,1636
2017-03-19T07:49:18.854Z,1596
2017-03-19T07:50:28.896Z,1616
2017-03-19T07:51:39.237Z,1656
2017-03-19T07:52:49.283Z,1756
2017-03-19T07:53:59.656Z,1800
2017-03-19T07:55:09.679Z,1752
2017-03-19T07:56:20.019Z,1760
2017-03-19T07:57:30.364Z,1820
2017-03-19T07:58:40.723Z,1932
2017-03-19T07:59:51.063Z,2000
2017-03-19T08:01:01.409Z,1972
2017-03-19T08:02:11.734Z,1976
2017-03-19T08:03:22.075Z,2084
2017-03-19T08:04:32.467Z,2264
2017-03-19T08:05:42.505Z,2368
2017-03-19T08:06:52.521Z,2444
2017-03-19T08:08:02.857Z,2436
2017-03-19T08:09:13.256Z,2432
2017-03-19T08:10:23.609Z,2372
2017-03-19T08:11:33.643Z,2324
2017-03-19T08:12:43.992Z,2208
2017-03-19T08:13:54.329Z,2128
2017-03-19T08:15:04.348Z,2132
2017-03-19T08:16:14.690Z,2220
2017-03-19T08:17:24.734Z,2376
2017-03-19T08:18:35.358Z,2472
2017-03-19T08:19:45.404Z,2436
2017-03-19T08:20:55.447Z,2412
2017-03-19T08:22:05.793Z,2396
2017-03-19T08:23:15.832Z,2372
2017-03-19T08:24:26.195Z,2444
2017-03-19T08:25:36.551Z,2592
2017-03-19T08:26:46.898Z,2736
2017-03-19T08:27:57.247Z,2904
2017-03-19T08:29:07.862Z,3144
2017-03-19T08:30:18.223Z,3300
2017-03-19T08:31:28.565Z,3320
2017-03-19T08:32:38.919Z,3264
2017-03-19T08:33:49.278Z,3320
2017-03-19T08:34:59.628Z,3396
2017-03-19T08:36:09.648Z,3484
2017-03-19T08:37:19.986Z,3604
2017-03-19T08:38:30.357Z,3688
2017-03-19T08:39:40.714Z,3640
2017-03-19T08:40:51.095Z,3616
2017-03-19T08:42:01.140Z,3652
2017-03-19T08:43:11.179Z,3732
2017-03-19T08:44:21.518Z,3984
2017-03-19T08:45:31.852Z,4272
2017-03-19T08:46:41.877Z,4468
2017-03-19T08:47:52.209Z,4596
2017-03-19T08:49:01.913Z,4780
2017-03-19T08:50:12.263Z,4984
2017-03-19T08:51:22.601Z,5108
2017-03-19T08:52:32.616Z,5152
2017-03-19T08:53:42.331Z,5052
2017-03-19T08:54:52.673Z,4896
2017-03-19T08:56:03.060Z,5000
2017-03-19T08:57:13.105Z,5224
2017-03-19T08:58:23.463Z,5488
2017-03-19T08:59:33.557Z,5840
2017-03-19T09:00:43.924Z,6180
2017-03-19T09:01:54.280Z,6248
2017-03-19T09:03:04.633Z,6228
2017-03-19T09:04:14.980Z,6244
2017-03-19T09:05:25.327Z,6232
2017-03-19T09:06:35.671Z,6204
2017-03-19T09:07:46.010Z,6256
2017-03-19T09:08:56.372Z,6308
2017-03-19T09:10:06.718Z,6244
2017-03-19T09:11:17.069Z,6056
2017-03-19T09:12:27.412Z,5808
2017-03-19T09:13:37.746Z,5472
2017-03-19T09:14:48.111Z,5068
2017-03-19T09:15:58.457Z,4804
2017-03-19T09:17:08.802Z,4652
2017-03-19T09:18:18.839Z,4640
2017-03-19T09:19:28.884Z,4592
2017-03-19T09:20:38.915Z,4532
2017-03-19T09:21:48.956Z,4504
2017-03-19T09:22:59.076Z,4492
2017-03-19T09:24:09.434Z,4468
2017-03-19T09:25:19.786Z,4312
2017-03-19T09:26:29.818Z,4152
2017-03-19T09:27:40.185Z,4092
2017-03-19T09:28:50.552Z,3856
2017-03-19T09:30:00.599Z,3612
2017-03-19T09:31:10.640Z,3532
2017-03-19T09:32:20.664Z,3540
2017-03-19T09:33:30.734Z,3632
2017-03-19T09:34:41.129Z,3720
2017-03-19T09:35:51.162Z,3764
2017-03-19T09:37:01.202Z,3828
2017-03-19T09:38:11.554Z,3916
2017-03-19T09:39:21.896Z,3920
2017-03-19T09:40:32.253Z,3864
2017-03-19T09:41:41.971Z,3856
2017-03-19T09:42:51.695Z,3896
2017-03-19T09:44:02.070Z,3996
2017-03-19T09:45:12.116Z,4148
2017-03-19T09:46:22.456Z,4332
2017-03-19T09:47:32.808Z,4460
2017-03-19T09:48:43.156Z,4536
2017-03-19T09:49:53.570Z,4652
2017-03-19T09:51:03.918Z,4668
2017-03-19T09:52:14.287Z,4640
2017-03-19T09:53:24.672Z,4584
2017-03-19T09:54:34.708Z,4600
2017-03-19T09:55:45.052Z,4752
2017-03-19T09:56:55.395Z,4952
2017-03-19T09:58:05.740Z,5140
2017-03-19T09:59:16.104Z,5300
2017-03-19T10:00:26.143Z,5472
2017-03-19T10:01:35.850Z,5688
2017-03-19T10:02:46.217Z,5848
2017-03-19T10:03:56.575Z,5988
2017-03-19T10:05:06.962Z,6024
2017-03-19T10:06:17.310Z,5976
2017-03-19T10:07:27.641Z,6100
2017-03-19T10:08:37.979Z,6324
2017-03-19T10:09:48.335Z,6628
2017-03-19T10:10:58.380Z,6996
2017-03-19T10:12:08.791Z,7220
2017-03-19T10:13:19.156Z,7372
2017-03-19T10:14:29.507Z,7392
2017-03-19T10:15:39.864Z,7396
2017-03-19T10:16:50.212Z,7404
2017-03-19T10:18:00.577Z,7236
2017-03-19T10:19:10.948Z,6784
2017-03-19T10:20:21.014Z,6280
2017-03-19T10:21:31.397Z,5596
2017-03-19T10:22:41.764Z,5356
2017-03-19T10:23:52.118Z,5692
2017-03-19T10:25:02.151Z,5612
2017-03-19T10:26:11.868Z,5760
2017-03-19T10:27:21.892Z,6080
2017-03-19T10:28:31.945Z,5988
2017-03-19T10:29:42.295Z,5972
2017-03-19T10:30:52.661Z,6184
2017-03-19T10:32:02.687Z,5976
2017-03-19T10:33:13.039Z,5308
2017-03-19T10:34:23.378Z,4840
2017-03-19T10:35:33.735Z,4608
2017-03-19T10:36:43.825Z,4516
2017-03-19T10:37:53.864Z,4804
2017-03-19T10:39:04.232Z,5552
2017-03-19T10:40:14.574Z,5308
2017-03-19T10:41:24.617Z,4364
2017-03-19T10:42:34.963Z,4040
2017-03-19T10:43:45.316Z,4116
2017-03-19T10:44:55.371Z,4196
2017-03-19T10:46:05.730Z,4028
2017-03-19T10:47:16.081Z,4188
2017-03-19T10:48:26.444Z,4692
2017-03-19T10:49:36.797Z,4884
2017-03-19T10:50:46.870Z,4884
2017-03-19T10:51:56.897Z,5116
2017-03-19T10:53:07.259Z,4812
2017-03-19T10:54:17.620Z,4776
2017-03-19T10:55:27.979Z,5304
2017-03-19T10:56:38.388Z,5368
2017-03-19T10:57:48.729Z,5316
2017-03-19T10:58:59.084Z,5356
2017-03-19T11:00:09.137Z,5396
2017-03-19T11:01:19.492Z,5412
2017-03-19T11:02:29.844Z,5244
2017-03-19T11:03:40.435Z,5148
2017-03-19T11:04:50.798Z,5264
2017-03-19T11:06:01.149Z,5528
2017-03-19T11:07:11.498Z,5768
2017-03-19T11:08:21.538Z,5968
2017-03-19T11:09:31.947Z,6096
2017-03-19T11:10:42.317Z,6248
2017-03-19T11:11:52.374Z,6464
2017-03-19T11:13:02.428Z,6568
2017-03-19T11:14:12.764Z,6692
2017-03-19T11:15:23.107Z,6668
2017-03-19T11:16:33.469Z,6812
2017-03-19T11:17:43.514Z,7068
2017-03-19T11:18:53.872Z,7216
2017-03-19T11:20:03.906Z,7252
2017-03-19T11:21:13.940Z,7372
2017-03-19T11:22:23.979Z,7540
2017-03-19T11:23:34.353Z,7416
2017-03-19T11:24:44.089Z,7308
2017-03-19T11:25:54.444Z,7496
2017-03-19T11:27:04.788Z,7588
2017-03-19T11:28:15.149Z,7596
2017-03-19T11:29:25.180Z,7592
2017-03-19T11:30:35.543Z,7548
2017-03-19T11:31:45.896Z,7552
2017-03-19T11:32:56.281Z,7672
2017-03-19T11:34:06.886Z,7652
2017-03-19T11:35:17.247Z,7260
2017-03-19T11:36:27.618Z,6820
2017-03-19T11:37:37.698Z,6352
2017-03-19T11:38:47.740Z,6000
2017-03-19T11:39:58.092Z,5936
2017-03-19T11:41:08.423Z,6036
2017-03-19T11:42:18.793Z,6100
2017-03-19T11:43:29.133Z,6192
2017-03-19T11:44:39.490Z,6368
2017-03-19T11:45:49.844Z,6464
2017-03-19T11:47:00.229Z,6236
2017-03-19T11:48:10.606Z,6084
2017-03-19T11:49:20.976Z,6088
2017-03-19T11:50:31.352Z,6104
2017-03-19T11:51:41.709Z,5888
2017-03-19T11:52:51.760Z,5500
2017-03-19T11:54:02.118Z,5060
2017-03-19T11:55:12.490Z,4728
2017-03-19T11:56:22.214Z,4560
2017-03-19T11:57:32.573Z,4500
2017-03-19T11:58:42.298Z,4628
2017-03-19T11:59:52.660Z,4928
2017-03-19T12:01:02.703Z,5180
2017-03-19T12:02:12.424Z,5388
2017-03-19T12:03:22.472Z,5516
2017-03-19T12:04:32.869Z,5524
2017-03-19T12:05:43.210Z,5436
2017-03-19T12:06:53.562Z,5504
2017-03-19T12:08:03.934Z,5652
2017-03-19T12:09:13.970Z,5508
2017-03-19T12:10:24.313Z,5256
2017-03-19T12:11:34.650Z,5076
2017-03-19T12:12:45.017Z,4780
2017-03-19T12:13:55.378Z,4400
2017-03-19T12:15:05.738Z,4388
2017-03-19T12:16:15.522Z,4684
2017-03-19T12:17:25.571Z,4720
2017-03-19T12:18:35.937Z,4652
2017-03-19T12:19:45.987Z,4576
2017-03-19T12:20:56.350Z,4184
2017-03-19T12:22:06.155Z,3732
2017-03-19T12:23:16.518Z,3460
2017-03-19T12:24:26.880Z,3436
2017-03-19T12:25:37.251Z,3764
2017-03-19T12:26:47.841Z,4236
2017-03-19T12:27:58.198Z,4596
2017-03-19T12:29:08.242Z,4844
2017-03-19T12:30:18.306Z,4988
2017-03-19T12:31:28.653Z,5068
2017-03-19T12:32:39.079Z,5284
2017-03-19T12:33:49.449Z,5552
2017-03-19T12:34:59.831Z,5760
2017-03-19T12:36:09.877Z,5720
2017-03-19T12:37:20.253Z,5768
2017-03-19T12:38:30.636Z,5824
2017-03-19T12:39:41.010Z,5832
2017-03-19T12:40:51.044Z,5772
2017-03-19T12:42:01.412Z,5676
2017-03-19T12:43:11.792Z,5616
2017-03-19T12:44:21.829Z,5572
2017-03-19T12:45:32.173Z,5448
2017-03-19T12:46:42.501Z,5284
2017-03-19T12:47:52.560Z,5148
2017-03-19T12:49:02.921Z,5120
2017-03-19T12:50:13.286Z,4928
2017-03-19T12:51:23.329Z,4636
2017-03-19T12:52:33.717Z,4552
2017-03-19T12:53:44.097Z,4512
2017-03-19T12:54:54.462Z,4540
2017-03-19T12:56:04.815Z,4524
2017-03-19T12:57:15.165Z,4176
2017-03-19T12:58:25.554Z,3832
2017-03-19T12:59:35.914Z,3668
2017-03-19T13:00:46.254Z,3612
2017-03-19T13:01:56.603Z,3632
2017-03-19T13:03:06.972Z,3884
2017-03-19T13:04:17.024Z,4108
2017-03-19T13:05:27.393Z,4132
2017-03-19T13:06:37.740Z,4028
2017-03-19T13:07:48.133Z,4008
2017-03-19T13:08:58.508Z,3872
2017-03-19T13:10:08.629Z,3716
2017-03-19T13:11:18.662Z,3748
2017-03-19T13:12:29.016Z,3616
2017-03-19T13:13:39.373Z,3656
2017-03-19T13:14:49.734Z,3676
2017-03-19T13:16:00.084Z,3448
2017-03-19T13:17:10.502Z,3400
2017-03-19T13:18:20.543Z,3388
2017-03-19T13:19:30.596Z,3220
2017-03-19T13:20:40.945Z,3060
2017-03-19T13:21:51.029Z,2984
2017-03-19T13:23:01.414Z,2960
2017-03-19T13:24:11.782Z,2976
2017-03-19T13:25:22.158Z,3148
2017-03-19T13:26:32.526Z,3288
2017-03-19T13:27:42.890Z,3164
2017-03-19T13:28:53.240Z,3044
2017-03-19T13:30:03.278Z,3104
2017-03-19T13:31:13.635Z,3108
2017-03-19T13:32:23.987Z,2988
2017-03-19T13:33:34.349Z,2932
2017-03-19T13:34:44.704Z,2880
2017-03-19T13:35:55.069Z,2888
2017-03-19T13:37:05.156Z,2912
2017-03-19T13:38:15.510Z,2824
2017-03-19T13:39:25.877Z,2712
2017-03-19T13:40:36.225Z,2728
2017-03-19T13:41:46.574Z,2748
2017-03-19T13:42:56.933Z,2588
2017-03-19T13:44:07.301Z,2404
2017-03-19T13:45:17.367Z,2260
2017-03-19T13:46:27.730Z,2236
2017-03-19T13:47:38.080Z,2236
2017-03-19T13:48:48.438Z,2200
2017-03-19T13:49:58.794Z,2172
2017-03-19T13:51:08.844Z,2156
2017-03-19T13:52:18.896Z,2104
2017-03-19T13:53:29.259Z,2100
2017-03-19T13:54:39.613Z,2108
2017-03-19T13:55:49.957Z,2180
2017-03-19T13:57:00.329Z,2136
2017-03-19T13:58:10.683Z,2048
2017-03-19T13:59:21.030Z,2016
2017-03-19T14:00:31.079Z,2072
2017-03-19T14:01:41.450Z,2064
2017-03-19T14:02:51.490Z,2044
2017-03-19T14:04:01.852Z,2116
2017-03-19T14:05:11.906Z,2148
2017-03-19T14:06:22.253Z,2004
2017-03-19T14:07:32.298Z,1924
2017-03-19T14:08:42.647Z,1992
2017-03-19T14:09:53.010Z,2024
2017-03-19T14:11:03.043Z,1960
2017-03-19T14:12:13.398Z,1788
2017-03-19T14:13:23.803Z,1712
2017-03-19T14:14:34.157Z,1724
2017-03-19T14:15:44.197Z,1700
2017-03-19T14:16:54.278Z,1672
2017-03-19T14:18:04.319Z,1656
2017-03-19T14:19:14.686Z,1664
2017-03-19T14:20:25.040Z,1724
2017-03-19T14:21:35.404Z,1764
2017-03-19T14:22:45.761Z,1796
2017-03-19T14:23:55.812Z,1792
2017-03-19T14:25:05.873Z,1788
2017-03-19T14:26:15.897Z,1764
2017-03-19T14:27:26.262Z,1784
2017-03-19T14:28:36.644Z,1844
2017-03-19T14:29:47.019Z,2016
2017-03-19T14:30:57.372Z,2252
2017-03-19T14:32:07.731Z,2708
2017-03-19T14:33:18.104Z,2996
2017-03-19T14:34:28.444Z,3084
2017-03-19T14:35:38.477Z,3200
2017-03-19T14:36:48.821Z,3156
2017-03-19T14:37:59.192Z,2948
2017-03-19T14:39:09.220Z,2768
2017-03-19T14:40:19.275Z,2728
2017-03-19T14:41:29.634Z,2504
2017-03-19T14:42:39.672Z,2324
2017-03-19T14:43:50.015Z,2168
2017-03-19T14:45:00.049Z,2132
2017-03-19T14:46:10.091Z,2232
2017-03-19T14:47:20.443Z,2416
2017-03-19T14:48:30.795Z,2712
2017-03-19T14:49:41.166Z,2980
2017-03-19T14:50:51.204Z,2960
2017-03-19T14:52:01.555Z,2864
2017-03-19T14:53:11.586Z,2796
2017-03-19T14:54:21.618Z,2696
2017-03-19T14:55:31.388Z,2704
2017-03-19T14:56:41.420Z,2892
2017-03-19T14:57:51.471Z,2988
2017-03-19T14:59:01.839Z,2860
2017-03-19T15:00:12.179Z,3060
2017-03-19T15:01:22.522Z,3392
2017-03-19T15:02:32.268Z,3612
2017-03-19T15:03:42.637Z,3692
2017-03-19T15:04:52.713Z,3540
2017-03-19T15:06:02.745Z,3500
2017-03-19T15:07:12.808Z,3208
2017-03-19T15:08:23.192Z,2816
2017-03-19T15:09:33.570Z,2528
2017-03-19T15:10:43.927Z,2344
2017-03-19T15:11:53.961Z,2260
2017-03-19T15:13:04.331Z,2108
2017-03-19T15:14:14.686Z,1868
2017-03-19T15:15:25.036Z,1692
2017-03-19T15:16:35.404Z,1532
2017-03-19T15:17:45.460Z,1364
2017-03-19T15:18:55.812Z,1272
2017-03-19T15:20:06.170Z,1324
2017-03-19T15:21:16.220Z,1416
2017-03-19T15:22:26.267Z,1396
2017-03-19T15:23:36.617Z,1248
2017-03-19T15:24:46.667Z,1044
2017-03-19T15:25:57.023Z,952
2017-03-19T15:27:07.372Z,940
2017-03-19T15:28:17.407Z,908
2017-03-19T15:29:27.455Z,912
2017-03-19T15:30:37.805Z,956
2017-03-19T15:31:48.167Z,988
2017-03-19T15:32:58.217Z,920
2017-03-19T15:34:08.574Z,900
2017-03-19T15:35:18.633Z,936
2017-03-19T15:36:28.989Z,960
2017-03-19T15:37:39.026Z,948
2017-03-19T15:38:49.383Z,1012
2017-03-19T15:39:59.767Z,1136
2017-03-19T15:41:10.123Z,1296
2017-03-19T15:42:20.470Z,1416
2017-03-19T15:43:30.834Z,1312
2017-03-19T15:44:41.203Z,1104
2017-03-19T15:45:51.598Z,880
2017-03-19T15:47:01.680Z,836
2017-03-19T15:48:12.050Z,736
2017-03-19T15:49:22.398Z,884
2017-03-19T15:50:32.769Z,1016
2017-03-19T15:51:43.115Z,1172
2017-03-19T15:52:53.477Z,1268
2017-03-19T15:54:06.102Z,1428
2017-03-19T15:55:18.227Z,1532
2017-03-19T15:56:29.407Z,1432
2017-03-19T15:57:41.666Z,1292
2017-03-19T15:58:52.395Z,1084
2017-03-19T16:00:02.794Z,1016
2017-03-19T16:01:13.170Z,1016
2017-03-19T16:02:23.609Z,904
2017-03-19T16:03:34.019Z,856
2017-03-19T16:04:44.404Z,764
2017-03-19T16:05:54.790Z,736
2017-03-19T16:07:05.291Z,736
2017-03-19T16:08:15.834Z,756
2017-03-19T16:09:26.219Z,756
2017-03-19T16:10:36.625Z,832
2017-03-19T16:11:47.026Z,928
2017-03-19T16:12:56.778Z,1048
2017-03-19T16:14:07.162Z,992
2017-03-19T16:15:17.502Z,888
2017-03-19T16:16:27.855Z,840
2017-03-19T16:17:38.248Z,864
2017-03-19T16:18:48.603Z,904
2017-03-19T16:19:59.236Z,852
2017-03-19T16:21:10.401Z,764
2017-03-19T16:22:22.265Z,700
2017-03-19T16:23:33.782Z,748
2017-03-19T16:24:45.381Z,840
2017-03-19T16:25:57.032Z,840
2017-03-19T16:27:08.854Z,844
2017-03-19T16:28:19.845Z,816
2017-03-19T16:29:30.864Z,740
2017-03-19T16:30:41.631Z,672
2017-03-19T16:31:52.514Z,612
2017-03-19T16:33:03.687Z,552
2017-03-19T16:34:14.131Z,488
2017-03-19T16:35:24.792Z,432
2017-03-19T16:36:35.738Z,380
2017-03-19T16:37:46.301Z,332
2017-03-19T16:38:56.689Z,292
2017-03-19T16:40:06.749Z,252
2017-03-19T16:41:17.197Z,224
2017-03-19T16:42:27.576Z,200
2017-03-19T16:43:37.755Z,188
2017-03-19T16:44:47.954Z,176
2017-03-19T16:45:58.381Z,160